createdAt,value
2023-05-10T00:01:09.807Z,91336.59
2023-05-10T00:03:36.371Z,91341.41
2023-05-10T00:06:03.006Z,91339.97
2023-05-10T00:08:29.523Z,91337.19
2023-05-10T00:10:56.336Z,91338.50
2023-05-10T00:13:23.230Z,91332.25
2023-05-10T00:15:49.823Z,91330.78
2023-05-10T00:18:16.306Z,91328.00
2023-05-10T00:20:42.800Z,91325.97
2023-05-10T00:23:09.278Z,91323.19
2023-05-10T00:25:35.780Z,91327.41
2023-05-10T00:28:02.824Z,91330.31
2023-05-10T00:30:29.346Z,91330.31
2023-05-10T00:32:55.917Z,91323.63
2023-05-10T00:35:22.736Z,91322.88
2023-05-10T00:37:49.308Z,91324.31
2023-05-10T00:40:16.395Z,91319.50
2023-05-10T00:42:43.156Z,91319.50
2023-05-10T00:45:09.887Z,91321.56
2023-05-10T00:47:36.975Z,91320.69
2023-05-10T00:50:03.940Z,91313.69
2023-05-10T00:52:31.246Z,91322.16
2023-05-10T00:54:58.276Z,91316.59
2023-05-10T00:57:25.275Z,91319.38
2023-05-10T00:59:52.485Z,91323.63
2023-05-10T01:02:19.084Z,91318.78
2023-05-10T01:04:45.722Z,91318.78
2023-05-10T01:07:12.394Z,91327.69
2023-05-10T01:09:38.971Z,91322.16
2023-05-10T01:12:07.915Z,91326.38
2023-05-10T01:14:35.523Z,91329.16
2023-05-10T01:17:02.443Z,91340.25
2023-05-10T01:19:32.783Z,91352.78
2023-05-10T01:22:31.402Z,91351.34
2023-05-10T01:25:12.893Z,91352.06
2023-05-10T01:27:48.361Z,91347.97
2023-05-10T01:30:42.665Z,91347.25
2023-05-10T01:33:18.324Z,91354.69
2023-05-10T01:35:56.422Z,91351.66
2023-05-10T01:38:22.839Z,91347.88
2023-05-10T01:40:52.096Z,91352.56
2023-05-10T01:43:25.178Z,91350.50
2023-05-10T01:46:05.679Z,91343.38
2023-05-10T01:48:33.476Z,91344.81
2023-05-10T01:51:00.042Z,91344.72
2023-05-10T01:53:28.275Z,91350.25
2023-05-10T01:55:57.087Z,91353.03
2023-05-10T01:58:32.664Z,91362.66
2023-05-10T02:01:02.759Z,91360.47
2023-05-10T02:03:30.248Z,91361.06
2023-05-10T02:05:58.402Z,91366.63
2023-05-10T02:08:25.925Z,91372.16
2023-05-10T02:10:56.615Z,91374.19
2023-05-10T02:13:25.316Z,91374.66
2023-05-10T02:15:54.050Z,91376.69
2023-05-10T02:18:22.378Z,91374.38
2023-05-10T02:20:49.387Z,91375.84
2023-05-10T02:23:18.157Z,91374.50
2023-05-10T02:25:46.861Z,91383.41
2023-05-10T02:28:15.454Z,91381.97
2023-05-10T02:30:42.688Z,91382.69
2023-05-10T02:33:09.731Z,91379.78
2023-05-10T02:35:37.347Z,91385.31
2023-05-10T02:38:05.225Z,91372.78
2023-05-10T02:40:33.493Z,91377.59
2023-05-10T02:43:02.519Z,91371.34
2023-05-10T02:45:32.220Z,91367.09
2023-05-10T02:47:59.446Z,91376.00
2023-05-10T02:50:29.224Z,91378.78
2023-05-10T02:53:02.963Z,91374.56
2023-05-10T02:55:36.482Z,91376.59
2023-05-10T02:58:04.032Z,91382.16
2023-05-10T03:00:30.822Z,91379.25
2023-05-10T03:02:57.508Z,91389.59
2023-05-10T03:05:24.390Z,91386.09
2023-05-10T03:07:51.846Z,91381.88
2023-05-10T03:10:19.621Z,91386.66
2023-05-10T03:12:49.268Z,91388.16
2023-05-10T03:15:48.792Z,91384.50
2023-05-10T03:18:39.655Z,91390.03
2023-05-10T03:21:11.614Z,91391.38
2023-05-10T03:23:58.116Z,91391.97
2023-05-10T03:26:29.276Z,91391.97
2023-05-10T03:28:56.863Z,91392.41
2023-05-10T03:31:23.425Z,91395.28
2023-05-10T03:33:51.533Z,91393.84
2023-05-10T03:36:18.694Z,91393.13
2023-05-10T03:38:45.270Z,91396.47
2023-05-10T03:41:12.096Z,91396.47
2023-05-10T03:43:39.476Z,91398.66
2023-05-10T03:46:06.947Z,91402.03
2023-05-10T03:48:34.096Z,91403.50
2023-05-10T03:51:00.978Z,91409.03
2023-05-10T03:53:27.984Z,91404.66
2023-05-10T03:55:54.465Z,91405.38
2023-05-10T03:58:21.054Z,91410.19
2023-05-10T04:00:47.682Z,91408.59
2023-05-10T04:03:14.537Z,91408.75
2023-05-10T04:05:41.413Z,91418.34
2023-05-10T04:08:08.179Z,91421.00
2023-05-10T04:10:34.696Z,91415.31
2023-05-10T04:13:01.238Z,91408.47
2023-05-10T04:15:27.813Z,91418.69
2023-05-10T04:17:54.621Z,91417.22
2023-05-10T04:20:21.300Z,91415.19
2023-05-10T04:22:47.841Z,91426.25
2023-05-10T04:25:14.483Z,91428.31
2023-05-10T04:27:41.020Z,91428.31
2023-05-10T04:30:08.260Z,91430.34
2023-05-10T04:32:34.740Z,91415.03
2023-05-10T04:35:01.362Z,91424.78
2023-05-10T04:37:27.836Z,91425.38
2023-05-10T04:39:54.377Z,91430.22
2023-05-10T04:42:20.871Z,91432.25
2023-05-10T04:44:47.344Z,91426.72
2023-05-10T04:47:14.489Z,91429.47
2023-05-10T04:49:41.012Z,91441.28
2023-05-10T04:52:07.495Z,91436.31
2023-05-10T04:54:33.966Z,91446.69
2023-05-10T04:57:00.468Z,91445.97
2023-05-10T04:59:27.505Z,91441.84
2023-05-10T05:01:54.047Z,91451.50
2023-05-10T05:04:20.606Z,91441.16
2023-05-10T05:06:47.086Z,91442.59
2023-05-10T05:09:13.757Z,91451.78
2023-05-10T05:11:41.358Z,91447.09
2023-05-10T05:14:07.740Z,91453.53
2023-05-10T05:16:34.284Z,91455.72
2023-05-10T05:19:01.655Z,91450.91
2023-05-10T05:21:28.207Z,91440.53
2023-05-10T05:23:54.681Z,91443.72
2023-05-10T05:26:21.276Z,91446.66
2023-05-10T05:28:49.483Z,91446.50
2023-05-10T05:31:16.036Z,91447.81
2023-05-10T05:33:42.546Z,91444.91
2023-05-10T05:36:09.271Z,91453.22
2023-05-10T05:38:35.775Z,91465.59
2023-05-10T05:41:02.422Z,91454.53
2023-05-10T05:43:28.940Z,91451.59
2023-05-10T05:45:55.953Z,91448.72
2023-05-10T05:48:22.536Z,91452.78
2023-05-10T05:50:49.071Z,91458.34
2023-05-10T05:53:15.736Z,91459.81
2023-05-10T05:55:52.979Z,91457.03
2023-05-10T05:58:19.502Z,91454.38
2023-05-10T06:00:46.076Z,91457.16
2023-05-10T06:03:12.707Z,91461.25
2023-05-10T06:05:39.274Z,91465.47
2023-05-10T06:08:05.868Z,91462.69
2023-05-10T06:10:32.427Z,91461.09
2023-05-10T06:12:58.928Z,91458.34
2023-05-10T06:15:25.667Z,91452.94
2023-05-10T06:17:52.206Z,91463.13
2023-05-10T06:20:18.907Z,91462.28
2023-05-10T06:22:45.541Z,91461.53
2023-05-10T06:25:12.508Z,91464.31
2023-05-10T06:27:39.051Z,91465.66
2023-05-10T06:30:13.036Z,91463.56
2023-05-10T06:32:40.332Z,91463.56
2023-05-10T06:35:07.599Z,91461.41
2023-05-10T06:37:34.192Z,91463.47
2023-05-10T06:40:01.550Z,91464.16
2023-05-10T06:42:28.329Z,91466.50
2023-05-10T06:44:54.929Z,91465.34
2023-05-10T06:47:21.427Z,91468.22
2023-05-10T06:49:47.902Z,91463.88
2023-05-10T06:52:14.368Z,91468.69
2023-05-10T06:54:40.868Z,91467.97
2023-05-10T06:57:16.088Z,91462.28
2023-05-10T06:59:50.223Z,91466.94
2023-05-10T07:02:16.796Z,91460.69
2023-05-10T07:04:43.475Z,91459.22
2023-05-10T07:07:10.160Z,91464.03
2023-05-10T07:09:36.690Z,91464.75
2023-05-10T07:12:03.286Z,91467.38
2023-05-10T07:14:29.837Z,91460.41
2023-05-10T07:16:56.422Z,91460.41
2023-05-10T07:19:23.475Z,91463.16
2023-05-10T07:21:50.030Z,91459.66
2023-05-10T07:24:16.559Z,91464.47
2023-05-10T07:26:43.161Z,91465.94
2023-05-10T07:29:09.771Z,91465.19
2023-05-10T07:31:36.646Z,91460.41
2023-05-10T07:34:03.249Z,91469.41
2023-05-10T07:36:29.845Z,91457.78
2023-05-10T07:38:58.365Z,91472.94
2023-05-10T07:41:24.932Z,91467.22
2023-05-10T07:43:51.481Z,91474.69
2023-05-10T07:46:18.038Z,91465.91
2023-05-10T07:48:44.524Z,91464.47
2023-05-10T07:51:11.667Z,91470.44
2023-05-10T07:53:38.985Z,91469.44
2023-05-10T07:56:23.890Z,91472.47
2023-05-10T07:58:50.386Z,91466.66
2023-05-10T08:01:16.905Z,91470.31
2023-05-10T08:03:43.508Z,91466.38
2023-05-10T08:06:11.279Z,91470.88
2023-05-10T08:08:37.885Z,91469.75
2023-05-10T08:11:05.230Z,91465.66
2023-05-10T08:13:32.428Z,91464.47
2023-05-10T08:15:59.163Z,91461.84
2023-05-10T08:18:25.805Z,91460.69
2023-05-10T08:20:52.335Z,91471.78
2023-05-10T08:23:18.834Z,91465.50
2023-05-10T08:25:45.384Z,91463.56
2023-05-10T08:28:12.068Z,91458.03
2023-05-10T08:30:38.598Z,91468.56
2023-05-10T08:33:05.108Z,91467.22
2023-05-10T08:35:32.446Z,91462.44
2023-05-10T08:37:58.966Z,91465.78
2023-05-10T08:40:27.486Z,91463.72
2023-05-10T08:43:10.634Z,91470.59
2023-05-10T08:45:42.164Z,91464.75
2023-05-10T08:48:10.455Z,91468.84
2023-05-10T08:50:38.986Z,91467.38
2023-05-10T08:53:07.826Z,91477.03
2023-05-10T08:55:34.813Z,91472.94
2023-05-10T08:58:01.511Z,91473.66
2023-05-10T09:00:29.505Z,91475.84
2023-05-10T09:02:56.602Z,91474.66
2023-05-10T09:05:23.167Z,91481.69
2023-05-10T09:07:49.973Z,91481.69
2023-05-10T09:10:17.052Z,91478.91
2023-05-10T09:12:46.239Z,91474.22
2023-05-10T09:15:16.158Z,91483.28
2023-05-10T09:17:43.571Z,91481.97
2023-05-10T09:20:10.398Z,91484.75
2023-05-10T09:22:37.185Z,91489.69
2023-05-10T09:25:14.662Z,91484.84
2023-05-10T09:27:42.686Z,91492.47
2023-05-10T09:30:09.678Z,91494.66
2023-05-10T09:32:44.038Z,91490.41
2023-05-10T09:35:19.360Z,91492.63
2023-05-10T09:37:48.751Z,91490.69
2023-05-10T09:40:19.841Z,91500.34
2023-05-10T09:42:56.735Z,91492.16
2023-05-10T09:45:25.278Z,91493.47
2023-05-10T09:47:51.940Z,91499.00
2023-05-10T09:50:18.661Z,91499.00
2023-05-10T09:52:54.863Z,91499.00
2023-05-10T09:55:24.276Z,91501.78
2023-05-10T09:58:00.628Z,91497.56
2023-05-10T10:00:28.224Z,91497.41
2023-05-10T10:02:59.059Z,91498.84
2023-05-10T10:05:33.305Z,91503.81
2023-05-10T10:08:01.097Z,91504.56
2023-05-10T10:10:28.782Z,91506.59
2023-05-10T10:12:55.662Z,91500.34
2023-05-10T10:15:23.531Z,91507.31
2023-05-10T10:17:51.160Z,91514.19
2023-05-10T10:20:18.227Z,91509.94
2023-05-10T10:22:45.122Z,91509.94
2023-05-10T10:25:13.449Z,91515.50
2023-05-10T10:27:51.995Z,91520.31
2023-05-10T10:30:40.161Z,91515.50
2023-05-10T10:33:13.554Z,91515.34
2023-05-10T10:35:54.607Z,91519.59
2023-05-10T10:38:21.687Z,91511.28
2023-05-10T10:40:48.781Z,91512.00
2023-05-10T10:43:26.876Z,91515.50
2023-05-10T10:46:15.828Z,91511.41
2023-05-10T10:48:47.971Z,91508.66
2023-05-10T10:51:14.828Z,91510.09
2023-05-10T10:53:42.215Z,91510.09
2023-05-10T10:56:14.727Z,91512.28
2023-05-10T10:58:42.305Z,91502.06
2023-05-10T11:01:11.991Z,91505.00
2023-05-10T11:03:38.829Z,91502.38
2023-05-10T11:06:05.504Z,91501.03
2023-05-10T11:08:35.147Z,91492.72
2023-05-10T11:11:08.156Z,91498.13
2023-05-10T11:13:47.709Z,91502.06
2023-05-10T11:16:24.524Z,91496.53
2023-05-10T11:19:05.164Z,91497.81
2023-05-10T11:21:33.495Z,91500.59
2023-05-10T11:24:01.180Z,91498.41
2023-05-10T11:26:33.474Z,91497.72
2023-05-10T11:29:01.733Z,91489.97
2023-05-10T11:31:29.171Z,91496.09
2023-05-10T11:33:57.158Z,91502.97
2023-05-10T11:36:29.319Z,91500.78
2023-05-10T11:38:57.245Z,91500.19
2023-05-10T11:41:25.394Z,91500.34
2023-05-10T11:43:54.741Z,91504.41
2023-05-10T11:46:23.176Z,91505.88
2023-05-10T11:48:54.740Z,91512.88
2023-05-10T11:51:25.811Z,91511.41
2023-05-10T11:53:56.094Z,91511.41
2023-05-10T11:56:24.360Z,91516.97
2023-05-10T11:58:58.240Z,91514.91
2023-05-10T12:01:26.138Z,91518.41
2023-05-10T12:03:54.953Z,91512.13
2023-05-10T12:06:22.340Z,91517.66
2023-05-10T12:08:53.425Z,91522.66
2023-05-10T12:11:21.897Z,91519.13
2023-05-10T12:13:48.751Z,91517.66
2023-05-10T12:16:20.694Z,91528.03
2023-05-10T12:18:54.792Z,91525.13
2023-05-10T12:21:22.500Z,91520.16
2023-05-10T12:23:52.892Z,91519.28
2023-05-10T12:26:22.509Z,91522.06
2023-05-10T12:28:49.185Z,91529.50
2023-05-10T12:31:15.759Z,91537.09
2023-05-10T12:33:44.230Z,91527.31
2023-05-10T12:36:11.977Z,91529.94
2023-05-10T12:38:40.650Z,91538.25
2023-05-10T12:41:09.450Z,91529.81
2023-05-10T12:43:37.370Z,91538.13
2023-05-10T12:46:11.151Z,91536.66
2023-05-10T12:48:39.065Z,91539.41
2023-05-10T12:51:06.676Z,91536.50
2023-05-10T12:53:33.102Z,91535.03
2023-05-10T12:55:59.650Z,91542.78
2023-05-10T12:58:34.916Z,91539.13
2023-05-10T13:01:03.163Z,91543.22
2023-05-10T13:03:29.817Z,91536.06
2023-05-10T13:05:56.329Z,91531.81
2023-05-10T13:08:22.860Z,91535.94
2023-05-10T13:10:49.656Z,91535.94
2023-05-10T13:13:16.500Z,91531.56
2023-05-10T13:15:43.025Z,91528.63
2023-05-10T13:18:09.573Z,91533.44
2023-05-10T13:20:36.139Z,91540.88
2023-05-10T13:23:03.564Z,91538.09
2023-05-10T13:25:30.136Z,91531.66
2023-05-10T13:27:56.641Z,91537.78
2023-05-10T13:30:24.749Z,91527.16
2023-05-10T13:32:51.301Z,91530.47
2023-05-10T13:35:17.859Z,91533.97
2023-05-10T13:37:44.605Z,91533.25
2023-05-10T13:40:11.390Z,91531.81
2023-05-10T13:42:38.514Z,91531.81
2023-05-10T13:45:05.693Z,91529.03
2023-05-10T13:47:32.286Z,91527.59
2023-05-10T13:49:59.410Z,91528.88
2023-05-10T13:52:26.176Z,91527.44
2023-05-10T13:54:55.847Z,91528.56
2023-05-10T13:57:22.937Z,91523.78
2023-05-10T13:59:49.624Z,91525.09
2023-05-10T14:02:16.136Z,91524.38
2023-05-10T14:04:42.708Z,91522.75
2023-05-10T14:07:09.272Z,91527.72
2023-05-10T14:09:35.907Z,91529.00
2023-05-10T14:12:03.069Z,91531.22
2023-05-10T14:14:30.432Z,91527.28
2023-05-10T14:16:57.205Z,91528.56
2023-05-10T14:19:23.766Z,91524.50
2023-05-10T14:21:50.481Z,91521.59
2023-05-10T14:24:16.978Z,91530.50
2023-05-10T14:26:43.467Z,91524.22
2023-05-10T14:29:11.565Z,91528.47
2023-05-10T14:31:39.035Z,91529.75
2023-05-10T14:34:06.750Z,91526.25
2023-05-10T14:36:33.321Z,91527.56
2023-05-10T14:38:59.859Z,91529.59
2023-05-10T14:41:26.373Z,91535.13
2023-05-10T14:43:53.153Z,91526.81
2023-05-10T14:46:19.660Z,91530.91
2023-05-10T14:48:46.225Z,91534.97
2023-05-10T14:51:12.775Z,91539.06
2023-05-10T14:53:39.277Z,91539.81
2023-05-10T14:56:06.106Z,91540.53
2023-05-10T14:58:34.142Z,91540.53
2023-05-10T15:01:01.224Z,91548.69
2023-05-10T15:03:28.464Z,91549.41
2023-05-10T15:05:57.054Z,91554.22
2023-05-10T15:08:25.476Z,91559.75
2023-05-10T15:10:52.761Z,91544.31
2023-05-10T15:13:19.259Z,91552.75
2023-05-10T15:15:45.868Z,91553.34
2023-05-10T15:18:12.827Z,91553.94
2023-05-10T15:20:39.608Z,91556.56
2023-05-10T15:23:06.211Z,91566.16
2023-05-10T15:25:35.701Z,91570.38
2023-05-10T15:28:03.655Z,91570.22
2023-05-10T15:30:30.375Z,91573.75
2023-05-10T15:32:57.256Z,91585.41
2023-05-10T15:35:23.817Z,91581.16
2023-05-10T15:37:50.457Z,91575.47
2023-05-10T15:40:17.136Z,91583.94
2023-05-10T15:42:43.728Z,91583.94
2023-05-10T15:45:11.799Z,91581.16
2023-05-10T15:47:40.495Z,91588.00
2023-05-10T15:50:07.797Z,91589.31
2023-05-10T15:52:34.713Z,91589.16
2023-05-10T15:55:01.182Z,91593.25
2023-05-10T15:57:27.887Z,91597.31
2023-05-10T15:59:54.377Z,91600.81
2023-05-10T16:02:22.570Z,91595.84
2023-05-10T16:04:49.247Z,91597.88
2023-05-10T16:07:15.949Z,91606.19
2023-05-10T16:09:42.541Z,91601.38
2023-05-10T16:12:09.129Z,91602.13
2023-05-10T16:14:35.670Z,91599.94
2023-05-10T16:17:05.176Z,91604.75
2023-05-10T16:19:32.042Z,91606.91
2023-05-10T16:21:58.667Z,91604.00
2023-05-10T16:24:26.233Z,91608.09
2023-05-10T16:26:52.746Z,91607.34
2023-05-10T16:29:19.362Z,91610.84
2023-05-10T16:31:46.338Z,91606.63
2023-05-10T16:34:13.142Z,91610.13
2023-05-10T16:36:39.653Z,91612.16
2023-05-10T16:39:06.342Z,91605.91
2023-05-10T16:41:34.074Z,91616.22
2023-05-10T16:44:00.668Z,91611.44
2023-05-10T16:46:27.326Z,91626.56
2023-05-10T16:48:53.959Z,91620.28
2023-05-10T16:51:20.513Z,91630.94
2023-05-10T16:53:47.157Z,91622.38
2023-05-10T16:56:13.718Z,91633.16
2023-05-10T16:58:40.558Z,91630.44
2023-05-10T17:01:07.289Z,91638.19
2023-05-10T17:03:34.143Z,91642.00
2023-05-10T17:06:00.833Z,91644.63
2023-05-10T17:08:27.402Z,91647.16
2023-05-10T17:10:53.895Z,91651.97
2023-05-10T17:13:20.394Z,91645.38
2023-05-10T17:15:47.468Z,91654.81
2023-05-10T17:18:14.059Z,91658.75
2023-05-10T17:20:43.211Z,91656.41
2023-05-10T17:23:09.689Z,91661.06
2023-05-10T17:25:36.824Z,91659.63
2023-05-10T17:28:03.958Z,91660.03
2023-05-10T17:30:32.684Z,91660.03
2023-05-10T17:33:02.658Z,91668.19
2023-05-10T17:35:31.380Z,91670.81
2023-05-10T17:37:58.261Z,91671.97
2023-05-10T17:40:24.820Z,91664.81
2023-05-10T17:42:52.090Z,91666.13
2023-05-10T17:45:19.018Z,91675.00
2023-05-10T17:47:45.839Z,91669.88
2023-05-10T17:50:12.402Z,91680.81
2023-05-10T17:52:38.971Z,91676.59
2023-05-10T17:55:06.003Z,91672.19
2023-05-10T17:57:32.556Z,91677.00
2023-05-10T17:59:59.055Z,91686.59
2023-05-10T18:02:25.681Z,91687.34
2023-05-10T18:04:52.404Z,91684.41
2023-05-10T18:07:18.969Z,91686.44
2023-05-10T18:09:45.573Z,91688.50
2023-05-10T18:12:12.076Z,91688.34
2023-05-10T18:14:41.078Z,91695.19
2023-05-10T18:17:09.132Z,91688.94
2023-05-10T18:19:35.806Z,91692.25
2023-05-10T18:22:02.712Z,91689.47
2023-05-10T18:24:38.398Z,91701.88
2023-05-10T18:27:07.632Z,91696.19
2023-05-10T18:29:34.236Z,91696.00
2023-05-10T18:32:00.775Z,91698.78
2023-05-10T18:34:27.295Z,91698.06
2023-05-10T18:36:53.909Z,91702.72
2023-05-10T18:39:20.650Z,91705.63
2023-05-10T18:41:47.233Z,91704.16
2023-05-10T18:44:14.528Z,91711.75
2023-05-10T18:46:42.340Z,91713.63
2023-05-10T18:49:09.288Z,91707.22
2023-05-10T18:51:35.971Z,91713.47
2023-05-10T18:54:02.484Z,91716.81
2023-05-10T18:56:28.969Z,91723.66
2023-05-10T18:58:55.446Z,91724.19
2023-05-10T19:01:21.983Z,91725.53
2023-05-10T19:03:48.495Z,91722.75
2023-05-10T19:06:14.999Z,91732.38
2023-05-10T19:08:41.469Z,91732.38
2023-05-10T19:11:07.962Z,91736.44
2023-05-10T19:13:34.481Z,91746.03
2023-05-10T19:16:11.199Z,91739.78
2023-05-10T19:18:38.903Z,91734.81
2023-05-10T19:21:10.369Z,91739.03
2023-05-10T19:23:41.630Z,91747.50
2023-05-10T19:26:10.188Z,91745.47
2023-05-10T19:28:37.776Z,91747.66
2023-05-10T19:31:04.381Z,91749.09
2023-05-10T19:33:31.588Z,91758.88
2023-05-10T19:35:58.140Z,91756.69
2023-05-10T19:38:25.631Z,91753.34
2023-05-10T19:40:58.009Z,91763.25
2023-05-10T19:43:28.819Z,91764.75
2023-05-10T19:45:58.957Z,91768.81
2023-05-10T19:48:26.147Z,91766.94
2023-05-10T19:51:01.631Z,91758.47
2023-05-10T19:53:28.708Z,91769.53
2023-05-10T19:55:56.346Z,91764.00
2023-05-10T19:58:23.470Z,91764.75
2023-05-10T20:00:50.014Z,91761.81
2023-05-10T20:03:16.672Z,91766.03
2023-05-10T20:05:43.194Z,91757.72
2023-05-10T20:08:09.711Z,91757.72
2023-05-10T20:10:36.224Z,91760.34
2023-05-10T20:13:03.151Z,91760.34
2023-05-10T20:15:29.841Z,91761.81
2023-05-10T20:17:56.682Z,91771.41
2023-05-10T20:20:23.613Z,91768.09
2023-05-10T20:22:50.426Z,91768.63
2023-05-10T20:25:18.488Z,91763.25
2023-05-10T20:27:45.380Z,91767.50
2023-05-10T20:30:12.348Z,91764.59
2023-05-10T20:32:39.562Z,91767.34
2023-05-10T20:35:07.138Z,91759.22
2023-05-10T20:37:33.703Z,91764.75
2023-05-10T20:40:00.246Z,91759.22
2023-05-10T20:42:27.091Z,91766.19
2023-05-10T20:44:53.613Z,91761.41
2023-05-10T20:47:20.162Z,91759.22
2023-05-10T20:49:46.696Z,91760.66
2023-05-10T20:52:13.279Z,91756.59
2023-05-10T20:54:39.768Z,91762.13
2023-05-10T20:57:06.491Z,91754.38
2023-05-10T20:59:33.071Z,91752.94
2023-05-10T21:01:59.838Z,91750.16
2023-05-10T21:04:26.466Z,91749.44
2023-05-10T21:06:53.280Z,91750.91
2023-05-10T21:09:19.884Z,91752.19
2023-05-10T21:11:46.561Z,91756.28
2023-05-10T21:14:13.167Z,91747.81
2023-05-10T21:16:39.963Z,91748.56
2023-05-10T21:19:07.482Z,91745.63
2023-05-10T21:21:34.214Z,91747.50
2023-05-10T21:24:00.810Z,91740.34
2023-05-10T21:26:27.362Z,91737.59
2023-05-10T21:28:53.922Z,91739.44
2023-05-10T21:31:20.578Z,91738.72
2023-05-10T21:33:47.195Z,91739.88
2023-05-10T21:36:13.830Z,91738.41
2023-05-10T21:38:41.011Z,91742.63
2023-05-10T21:41:08.133Z,91743.94
2023-05-10T21:43:34.745Z,91739.56
2023-05-10T21:46:01.560Z,91739.56
2023-05-10T21:48:28.161Z,91738.81
2023-05-10T21:50:54.757Z,91737.34
2023-05-10T21:53:22.304Z,91737.34
2023-05-10T21:55:49.041Z,91739.25
2023-05-10T21:58:15.755Z,91739.25
2023-05-10T22:00:42.289Z,91733.72
2023-05-10T22:03:08.897Z,91732.22
2023-05-10T22:05:35.617Z,91730.78
2023-05-10T22:08:02.127Z,91737.59
2023-05-10T22:10:28.646Z,91737.75
2023-05-10T22:12:55.285Z,91731.50
2023-05-10T22:15:21.899Z,91726.53
2023-05-10T22:17:48.512Z,91730.63
2023-05-10T22:20:15.224Z,91727.84
2023-05-10T22:22:41.944Z,91731.19
2023-05-10T22:25:08.670Z,91733.22
2023-05-10T22:27:35.233Z,91727.53
2023-05-10T22:30:02.161Z,91731.75
2023-05-10T22:32:28.728Z,91724.59
2023-05-10T22:34:55.226Z,91731.59
2023-05-10T22:37:21.700Z,91730.28
2023-05-10T22:39:49.476Z,91730.13
2023-05-10T22:42:16.221Z,91727.34
2023-05-10T22:44:43.251Z,91726.06
2023-05-10T22:47:09.838Z,91728.69
2023-05-10T22:49:36.580Z,91721.69
2023-05-10T22:52:03.108Z,91727.22
2023-05-10T22:54:29.657Z,91727.22
2023-05-10T22:56:56.539Z,91725.75
2023-05-10T22:59:23.513Z,91720.22
2023-05-10T23:01:50.746Z,91722.97
2023-05-10T23:04:18.049Z,91720.06
2023-05-10T23:06:45.623Z,91719.88
2023-05-10T23:09:12.268Z,91711.47
2023-05-10T23:11:38.806Z,91717.00
2023-05-10T23:14:05.295Z,91715.50
2023-05-10T23:16:31.953Z,91718.09
2023-05-10T23:18:58.811Z,91719.59
2023-05-10T23:21:25.394Z,91719.41
2023-05-10T23:23:52.431Z,91726.41
2023-05-10T23:26:19.032Z,91727.88
2023-05-10T23:28:45.561Z,91724.38
2023-05-10T23:31:12.038Z,91723.63
2023-05-10T23:33:38.668Z,91725.84
2023-05-10T23:36:05.389Z,91729.16
2023-05-10T23:38:31.965Z,91720.88
2023-05-10T23:40:58.459Z,91716.63
2023-05-10T23:43:25.490Z,91718.09
2023-05-10T23:45:54.066Z,91715.16
2023-05-10T23:48:21.062Z,91715.91
2023-05-10T23:50:47.980Z,91716.63
2023-05-10T23:53:14.677Z,91716.47
2023-05-10T23:55:41.431Z,91715.00
2023-05-10T23:58:08.082Z,91716.47
